Time;durP1;ratioP1;P1;durP2;ratioP2;P2;SDS_P1;SDS_P2;PMS_P1;PMS_P2;Temp;Humidity;BMP_temperature;BMP_pressure;BME280_temperature;BME280_humidity;BME280_pressure;Samples;Min_cycle;Max_cycle;Signal;HPM_P1;HPM_P2
2023/05/15 00:01:03;;;;;;;10.73;6.85;;;;;;;12.05;100.00;97852.31;2602398;28;20086;-90
2023/05/15 00:02:19;;;;;;;11.40;6.93;;;;;;;12.18;100.00;97849.16;2602790;28;20045;-87
2023/05/15 00:03:35;;;;;;;11.57;6.95;;;;;;;12.12;100.00;97845.03;2603436;28;20049;-87
2023/05/15 00:04:50;;;;;;;11.50;7.18;;;;;;;12.10;100.00;97849.50;2602680;28;20087;-87
2023/05/15 00:06:06;;;;;;;12.18;7.28;;;;;;;11.91;100.00;97838.91;2603747;28;20416;-86
2023/05/15 00:07:21;;;;;;;10.55;6.82;;;;;;;11.96;100.00;97845.69;2602101;28;20056;-87
2023/05/15 00:08:37;;;;;;;9.57;6.38;;;;;;;11.88;100.00;97839.94;2604608;28;20044;-87
2023/05/15 00:09:52;;;;;;;12.10;7.13;;;;;;;11.85;100.00;97840.91;2603786;28;20045;-87
2023/05/15 00:11:08;;;;;;;10.50;7.28;;;;;;;11.99;100.00;97837.66;2592322;28;20528;-86
2023/05/15 00:12:24;;;;;;;12.25;7.32;;;;;;;12.03;100.00;97837.59;2596206;28;20527;-86
2023/05/15 00:13:39;;;;;;;11.18;7.50;;;;;;;12.04;100.00;97829.63;2604309;28;20045;-86
2023/05/15 00:14:55;;;;;;;11.60;7.50;;;;;;;11.82;100.00;97834.94;2594037;28;20135;-87
2023/05/15 00:16:10;;;;;;;11.95;7.25;;;;;;;11.84;100.00;97833.09;2597318;28;20045;-87
2023/05/15 00:17:26;;;;;;;11.23;7.32;;;;;;;11.91;100.00;97836.31;2604969;28;20408;-87
2023/05/15 00:18:41;;;;;;;11.43;7.03;;;;;;;11.90;100.00;97838.09;2603918;28;20402;-87
2023/05/15 00:19:58;;;;;;;10.60;7.85;;;;;;;11.81;100.00;97830.59;2602557;28;20049;-86
2023/05/15 00:21:14;;;;;;;11.18;7.20;;;;;;;11.88;100.00;97834.69;2605470;28;20544;-86
2023/05/15 00:22:29;;;;;;;9.70;6.95;;;;;;;11.93;100.00;97830.06;2604703;28;20071;-87
2023/05/15 00:23:46;;;;;;;10.95;7.45;;;;;;;11.90;100.00;97827.59;2603858;28;20053;-86
2023/05/15 00:25:02;;;;;;;9.75;6.55;;;;;;;11.99;100.00;97832.41;2605223;28;20053;-86
2023/05/15 00:26:17;;;;;;;11.13;7.35;;;;;;;11.93;100.00;97835.31;2602612;28;20045;-86
2023/05/15 00:27:33;;;;;;;11.57;7.07;;;;;;;11.98;100.00;97828.09;2603757;28;20068;-86
2023/05/15 00:28:49;;;;;;;10.98;7.25;;;;;;;11.92;100.00;97831.00;2604582;28;20111;-87
2023/05/15 00:30:05;;;;;;;12.52;7.57;;;;;;;11.89;100.00;97836.38;2602226;28;20053;-87
2023/05/15 00:31:21;;;;;;;12.13;7.50;;;;;;;11.85;100.00;97827.78;2603002;28;20545;-87
2023/05/15 00:32:37;;;;;;;9.98;6.85;;;;;;;11.88;100.00;97829.44;2602912;28;20569;-87
2023/05/15 00:33:52;;;;;;;11.85;7.43;;;;;;;12.00;100.00;97828.88;2603263;28;20049;-87
2023/05/15 00:35:08;;;;;;;11.98;7.25;;;;;;;11.91;100.00;97824.06;2604228;28;20077;-87
2023/05/15 00:36:24;;;;;;;12.20;7.10;;;;;;;11.88;100.00;97821.56;2591692;28;20049;-87
2023/05/15 00:37:40;;;;;;;10.77;7.45;;;;;;;11.79;100.00;97822.78;2595802;28;20521;-88
2023/05/15 00:38:56;;;;;;;14.38;7.13;;;;;;;11.82;100.00;97825.31;2603233;28;20136;-87
2023/05/15 00:40:19;;;;;;;11.07;7.70;;;;;;;11.97;100.00;97820.31;2603858;28;20049;-87
2023/05/15 00:41:36;;;;;;;11.57;7.88;;;;;;;11.99;100.00;97819.31;2603250;28;20055;-87
2023/05/15 00:42:53;;;;;;;12.27;7.68;;;;;;;12.00;100.00;97813.13;2603540;28;20077;-87
2023/05/15 00:44:09;;;;;;;12.75;6.93;;;;;;;11.89;100.00;97817.16;2602769;28;20049;-87
2023/05/15 00:45:25;;;;;;;11.13;7.28;;;;;;;11.78;100.00;97812.38;2601529;28;20087;-87
2023/05/15 00:46:44;;;;;;;11.43;7.55;;;;;;;11.83;100.00;97811.28;2598454;28;20049;-87
2023/05/15 00:48:00;;;;;;;12.05;7.13;;;;;;;11.83;100.00;97811.28;2603025;28;20049;-87
2023/05/15 00:49:19;;;;;;;10.43;7.18;;;;;;;11.84;100.00;97806.84;2604155;28;20045;-88
2023/05/15 00:50:35;;;;;;;11.85;7.93;;;;;;;12.03;100.00;97811.34;2590835;28;20175;-87
2023/05/15 00:51:52;;;;;;;11.38;7.13;;;;;;;12.05;100.00;97812.13;2595367;28;20473;-87
2023/05/15 00:53:07;;;;;;;10.02;7.30;;;;;;;11.99;100.00;97805.34;2604173;28;20048;-87
2023/05/15 00:54:24;;;;;;;11.85;7.93;;;;;;;12.02;100.00;97809.66;2602476;28;20040;-87
2023/05/15 00:55:41;;;;;;;13.77;8.07;;;;;;;12.11;100.00;97803.97;2602145;28;20056;-87
2023/05/15 00:56:58;;;;;;;11.32;6.82;;;;;;;12.17;100.00;97806.34;2604940;28;20053;-87
2023/05/15 00:58:14;;;;;;;12.23;7.97;;;;;;;12.13;100.00;97803.00;2604905;28;20083;-87
2023/05/15 00:59:31;;;;;;;10.85;6.45;;;;;;;12.19;100.00;97806.25;2603497;28;20049;-87
2023/05/15 01:00:49;;;;;;;11.32;7.13;;;;;;;12.23;100.00;97810.47;2602928;28;20684;-87
2023/05/15 01:02:04;;;;;;;11.23;7.60;;;;;;;12.26;100.00;97802.44;2605471;28;20139;-87
2023/05/15 01:03:20;;;;;;;9.75;7.10;;;;;;;12.23;100.00;97806.06;2604057;28;20052;-88
2023/05/15 01:04:36;;;;;;;9.02;6.93;;;;;;;12.21;100.00;97807.91;2600620;28;20053;-87
2023/05/15 01:05:51;;;;;;;10.55;7.38;;;;;;;12.25;100.00;97806.84;2602705;28;20374;-87
2023/05/15 01:07:07;;;;;;;11.02;6.95;;;;;;;12.28;100.00;97806.69;2591127;28;20050;-87
2023/05/15 01:08:26;;;;;;;11.98;6.82;;;;;;;12.28;100.00;97801.44;2598226;28;20041;-87
2023/05/15 01:09:43;;;;;;;9.88;7.25;;;;;;;12.28;100.00;97805.84;2603634;28;20084;-88
2023/05/15 01:11:01;;;;;;;9.27;6.82;;;;;;;12.32;100.00;97799.53;2603764;28;20049;-88
2023/05/15 01:12:18;;;;;;;10.57;7.05;;;;;;;12.38;100.00;97808.91;2604060;28;20500;-87
2023/05/15 01:13:33;;;;;;;11.43;6.82;;;;;;;12.40;100.00;97804.44;2602952;28;20080;-88
2023/05/15 01:14:49;;;;;;;11.15;7.10;;;;;;;12.39;100.00;97807.97;2603452;28;20052;-88
2023/05/15 01:16:06;;;;;;;12.00;7.00;;;;;;;12.27;100.00;97806.78;2603850;28;20056;-87
2023/05/15 01:17:22;;;;;;;12.45;7.03;;;;;;;12.31;100.00;97807.50;2602617;28;20174;-87
2023/05/15 01:18:37;;;;;;;10.18;6.72;;;;;;;12.13;100.00;97800.38;2592647;28;20053;-87
2023/05/15 01:19:56;;;;;;;11.18;7.05;;;;;;;12.22;100.00;97793.84;2595666;28;20044;-87
2023/05/15 01:21:27;;;;;;;9.13;6.80;;;;;;;12.24;100.00;97794.63;2602386;28;20159;-87
2023/05/15 01:22:43;;;;;;;10.73;7.05;;;;;;;12.37;100.00;97791.44;2604818;28;20390;-87
2023/05/15 01:24:17;;;;;;;9.95;7.00;;;;;;;12.24;100.00;97797.25;2602402;28;20083;-87
2023/05/15 01:26:09;;;;;;;11.27;6.90;;;;;;;12.09;100.00;97788.31;2598504;28;20405;-87
2023/05/15 01:27:34;;;;;;;11.32;6.63;;;;;;;12.20;100.00;97789.59;2603281;28;20123;-87
2023/05/15 01:29:13;;;;;;;11.82;6.30;;;;;;;12.11;100.00;97785.59;2602865;28;20045;-88
2023/05/15 01:30:33;;;;;;;10.38;7.28;;;;;;;12.31;100.00;97791.75;2602700;28;20052;-87
2023/05/15 01:32:02;;;;;;;10.10;6.78;;;;;;;12.04;100.00;97785.03;2604784;28;20054;-87
2023/05/15 01:33:22;;;;;;;11.82;7.22;;;;;;;12.07;100.00;97787.50;2605197;28;20050;-87
2023/05/15 01:34:44;;;;;;;10.70;6.50;;;;;;;12.11;100.00;97783.84;2602108;28;20046;-88
2023/05/15 01:36:06;;;;;;;;;;;;;;;12.06;100.00;97782.34;2604779;28;20041;-87
2023/05/15 01:37:27;;;;;;;10.70;6.43;;;;;;;12.00;100.00;97779.03;2601946;28;19928;-87
2023/05/15 01:38:55;;;;;;;11.00;7.05;;;;;;;12.11;100.00;97778.59;2604331;28;20132;-87
2023/05/15 01:40:14;;;;;;;13.85;7.88;;;;;;;12.02;100.00;97781.63;2603390;28;20046;-87
2023/05/15 01:41:36;;;;;;;10.90;7.38;;;;;;;12.13;100.00;97779.38;2602909;28;20103;-87
2023/05/15 01:43:00;;;;;;;11.10;7.32;;;;;;;12.06;100.00;97784.97;2604363;28;20076;-87
2023/05/15 01:44:24;;;;;;;11.18;7.47;;;;;;;11.85;100.00;97780.56;2591232;28;20520;-86
2023/05/15 01:45:42;;;;;;;11.82;7.22;;;;;;;11.83;100.00;97782.41;2597277;28;20056;-87
2023/05/15 01:47:00;;;;;;;11.52;7.32;;;;;;;11.91;100.00;97781.22;2602868;28;20135;-87
2023/05/15 01:48:18;;;;;;;11.65;7.95;;;;;;;11.90;100.00;97777.75;2602626;28;20053;-87
2023/05/15 01:49:35;;;;;;;11.10;7.45;;;;;;;11.91;100.00;97775.97;2603296;28;20061;-87
2023/05/15 01:50:54;;;;;;;10.82;7.53;;;;;;;11.85;100.00;97772.72;2603699;28;20122;-87
2023/05/15 01:52:28;;;;;;;12.98;8.10;;;;;;;11.62;100.00;97765.84;2604677;28;20056;-87
2023/05/15 01:53:45;;;;;;;12.70;6.75;;;;;;;11.64;100.00;97766.63;2603814;28;20045;-87
2023/05/15 01:55:03;;;;;;;11.07;7.50;;;;;;;11.57;100.00;97762.56;2602837;28;20059;-87
2023/05/15 01:56:20;;;;;;;14.15;7.93;;;;;;;11.69;100.00;97766.44;2598182;28;20064;-87
2023/05/15 01:57:37;;;;;;;14.43;7.72;;;;;;;11.81;100.00;97760.66;2602779;28;20520;-87
2023/05/15 01:58:55;;;;;;;12.65;7.75;;;;;;;11.82;100.00;97751.00;2602192;28;20522;-87
2023/05/15 02:00:12;;;;;;;12.48;7.60;;;;;;;11.97;100.00;97752.09;2603604;28;20137;-87
2023/05/15 02:01:29;;;;;;;10.60;7.55;;;;;;;11.79;100.00;97759.84;2602521;28;20447;-87
2023/05/15 02:02:47;;;;;;;12.27;7.70;;;;;;;11.91;100.00;97755.84;2601818;28;20504;-87
2023/05/15 02:04:03;;;;;;;12.82;7.80;;;;;;;11.79;100.00;97753.75;2604995;28;20041;-87
2023/05/15 02:05:19;;;;;;;11.38;7.40;;;;;;;11.85;100.00;97754.34;2604796;28;20460;-87
2023/05/15 02:06:35;;;;;;;12.68;7.65;;;;;;;11.67;100.00;97753.38;2603026;28;20131;-88
2023/05/15 02:07:51;;;;;;;11.15;6.95;;;;;;;11.61;100.00;97747.53;2604929;28;20041;-87
2023/05/15 02:09:08;;;;;;;11.75;7.22;;;;;;;11.85;100.00;97750.84;2604885;28;20488;-87
2023/05/15 02:10:25;;;;;;;11.55;7.50;;;;;;;11.85;100.00;97751.72;2599658;28;20073;-87
2023/05/15 02:11:41;;;;;;;13.70;7.82;;;;;;;11.90;100.00;97754.16;2604752;28;20044;-87
2023/05/15 02:12:56;;;;;;;11.52;7.25;;;;;;;11.85;100.00;97749.09;2601740;28;20052;-87
2023/05/15 02:14:14;;;;;;;11.68;6.65;;;;;;;11.92;100.00;97752.31;2599472;28;20045;-87
2023/05/15 02:15:30;;;;;;;12.73;7.63;;;;;;;11.85;100.00;97750.84;2602236;28;20049;-87
2023/05/15 02:16:46;;;;;;;11.52;7.47;;;;;;;11.84;100.00;97754.41;2601623;28;20073;-87
2023/05/15 02:18:02;;;;;;;13.07;7.80;;;;;;;11.85;100.00;97749.09;2603463;28;20076;-87
2023/05/15 02:19:17;;;;;;;12.80;7.35;;;;;;;11.65;100.00;97746.50;2601569;28;20042;-87
2023/05/15 02:20:33;;;;;;;11.73;7.15;;;;;;;11.80;100.00;97753.69;2591443;28;20753;-87
2023/05/15 02:21:49;;;;;;;11.25;7.10;;;;;;;11.93;100.00;97750.50;2596130;28;20041;-87
2023/05/15 02:23:04;;;;;;;12.63;7.53;;;;;;;12.02;100.00;97750.16;2602084;28;20045;-87
2023/05/15 02:24:20;;;;;;;10.43;7.13;;;;;;;11.94;100.00;97746.97;2602661;28;20533;-87
2023/05/15 02:26:00;;;;;;;11.07;7.30;;;;;;;12.00;100.00;97751.97;2604269;28;20089;-87
2023/05/15 02:27:23;;;;;;;11.00;7.18;;;;;;;11.82;100.00;97748.38;2601651;28;20057;-88
2023/05/15 02:28:42;;;;;;;10.75;6.40;;;;;;;11.91;100.00;97750.59;2602028;28;20511;-87
2023/05/15 02:30:08;;;;;;;11.07;7.45;;;;;;;11.95;100.00;97748.69;2604533;28;20159;-87
2023/05/15 02:31:36;;;;;;;10.85;6.90;;;;;;;12.03;100.00;97743.97;2601512;28;20050;-87
2023/05/15 02:33:19;;;;;;;10.05;6.80;;;;;;;11.92;100.00;97743.56;2603264;28;20045;-87
2023/05/15 02:34:40;;;;;;;11.48;7.28;;;;;;;11.96;100.00;97747.78;2603620;28;20073;-88
2023/05/15 02:36:01;;;;;;;11.37;6.97;;;;;;;12.00;100.00;97744.09;2604017;28;20060;-87
2023/05/15 02:37:23;;;;;;;9.15;6.45;;;;;;;12.06;100.00;97743.00;2602672;28;20467;-87
2023/05/15 02:38:51;;;;;;;10.23;6.60;;;;;;;12.07;100.00;97736.81;2601569;28;20073;-87
2023/05/15 02:40:09;;;;;;;9.70;6.72;;;;;;;11.99;100.00;97743.22;2602669;28;20496;-87
2023/05/15 02:41:26;;;;;;;9.43;6.18;;;;;;;11.82;100.00;97737.88;2604926;28;20145;-87
2023/05/15 02:42:46;;;;;;;13.27;7.00;;;;;;;11.76;100.00;97730.31;2601896;28;20136;-87
2023/05/15 02:44:02;;;;;;;10.35;6.03;;;;;;;11.38;100.00;97728.41;2603038;28;20048;-87
2023/05/15 02:45:18;;;;;;;10.20;6.07;;;;;;;11.38;100.00;97726.66;2591843;28;20049;-87
2023/05/15 02:46:36;;;;;;;8.07;5.82;;;;;;;11.39;100.00;97720.50;2596575;28;20056;-87
2023/05/15 02:47:52;;;;;;;11.77;6.95;;;;;;;11.53;100.00;97724.28;2602763;28;20499;-87
2023/05/15 02:49:09;;;;;;;9.45;6.90;;;;;;;11.57;100.00;97721.47;2603031;28;20045;-87
2023/05/15 02:50:25;;;;;;;12.60;7.15;;;;;;;11.61;100.00;97722.19;2603989;28;20563;-87
2023/05/15 02:51:41;;;;;;;11.50;7.43;;;;;;;11.57;100.00;97723.22;2603331;28;20049;-87
2023/05/15 02:53:07;;;;;;;11.07;7.15;;;;;;;11.52;100.00;97723.41;2603705;28;20049;-87
2023/05/15 02:54:22;;;;;;;13.18;7.00;;;;;;;11.30;100.00;97718.25;2603585;28;20128;-87
2023/05/15 02:55:38;;;;;;;13.45;7.00;;;;;;;11.29;100.00;97720.03;2605040;28;20045;-87
2023/05/15 02:56:53;;;;;;;10.85;6.85;;;;;;;11.53;100.00;97722.53;2606072;28;20515;-87
2023/05/15 02:58:09;;;;;;;11.05;7.35;;;;;;;11.66;100.00;97719.34;2604650;28;20049;-87
2023/05/15 02:59:25;;;;;;;11.43;7.25;;;;;;;11.70;100.00;97719.16;2605914;28;20045;-87
2023/05/15 03:00:40;;;;;;;11.20;6.30;;;;;;;11.73;100.00;97713.78;2606304;28;20056;-87
2023/05/15 03:01:56;;;;;;;10.13;6.53;;;;;;;11.58;100.00;97714.44;2599980;28;20045;-87
2023/05/15 03:03:12;;;;;;;9.82;6.57;;;;;;;11.43;100.00;97715.97;2603994;28;20147;-88
2023/05/15 03:04:27;;;;;;;12.05;7.40;;;;;;;11.44;100.00;97713.28;2605626;28;20053;-88
2023/05/15 03:05:43;;;;;;;12.15;7.28;;;;;;;11.44;100.00;97715.91;2603725;28;20136;-87
2023/05/15 03:06:58;;;;;;;10.73;6.55;;;;;;;11.70;100.00;97713.06;2605199;28;20120;-88
2023/05/15 03:08:14;;;;;;;10.65;7.07;;;;;;;11.75;100.00;97710.25;2604822;28;20080;-87
2023/05/15 03:09:29;;;;;;;10.32;7.10;;;;;;;11.78;100.00;97716.19;2593249;28;20049;-87
2023/05/15 03:10:45;;;;;;;13.30;7.50;;;;;;;11.87;100.00;97713.16;2597180;28;20702;-87
2023/05/15 03:12:00;;;;;;;12.57;7.18;;;;;;;11.91;100.00;97707.75;2604631;28;20056;-86
2023/05/15 03:13:16;;;;;;;11.75;7.25;;;;;;;12.01;100.00;97709.06;2602084;28;20175;-88
2023/05/15 03:14:32;;;;;;;14.15;6.68;;;;;;;12.06;100.00;97706.25;2603647;28;20053;-87
2023/05/15 03:15:47;;;;;;;11.32;6.90;;;;;;;12.05;100.00;97704.56;2604348;28;21034;-87
2023/05/15 03:17:03;;;;;;;10.43;7.03;;;;;;;11.98;100.00;97699.53;2605094;28;20053;-87
2023/05/15 03:18:19;;;;;;;11.88;7.07;;;;;;;11.80;100.00;97695.16;2603242;28;20056;-86
2023/05/15 03:19:34;;;;;;;11.52;6.82;;;;;;;11.93;100.00;97693.66;2604741;28;20468;-87
2023/05/15 03:20:51;;;;;;;11.13;7.45;;;;;;;11.89;100.00;97691.25;2602751;28;20497;-87
2023/05/15 03:22:07;;;;;;;11.02;7.45;;;;;;;11.85;100.00;97694.03;2605342;28;20091;-87
2023/05/15 03:23:22;;;;;;;11.35;6.95;;;;;;;11.94;100.00;97694.50;2603335;28;20087;-87
2023/05/15 03:24:38;;;;;;;11.50;7.30;;;;;;;12.02;100.00;97695.06;2604107;28;20474;-87
2023/05/15 03:25:53;;;;;;;11.68;6.90;;;;;;;12.04;100.00;97693.19;2603750;28;20513;-87
2023/05/15 03:27:09;;;;;;;11.07;7.00;;;;;;;12.13;100.00;97699.78;2603585;28;20103;-87
2023/05/15 03:28:25;;;;;;;10.45;6.10;;;;;;;12.01;100.00;97693.31;2605307;28;20172;-87
2023/05/15 03:29:41;;;;;;;9.80;6.15;;;;;;;11.99;100.00;97696.00;2606337;28;20041;-87
2023/05/15 03:30:56;;;;;;;9.15;6.55;;;;;;;11.80;100.00;97690.72;2604981;28;20616;-87
2023/05/15 03:32:12;;;;;;;11.27;6.97;;;;;;;11.98;100.00;97691.69;2603054;28;20076;-87
2023/05/15 03:33:28;;;;;;;12.90;7.32;;;;;;;12.00;100.00;97689.00;2605326;28;20212;-87
2023/05/15 03:34:43;;;;;;;11.35;7.35;;;;;;;12.02;100.00;97687.19;2604476;28;20053;-87
2023/05/15 03:35:59;;;;;;;10.32;6.68;;;;;;;11.85;100.00;97686.16;2603274;28;20083;-87
2023/05/15 03:37:14;;;;;;;9.10;5.95;;;;;;;11.57;100.00;97689.16;2605192;28;20052;-87
2023/05/15 03:38:30;;;;;;;11.30;7.40;;;;;;;11.60;100.00;97689.03;2604915;28;20091;-87
2023/05/15 03:39:46;;;;;;;10.57;6.70;;;;;;;11.59;100.00;97676.81;2603848;28;20107;-87
2023/05/15 03:41:01;;;;;;;13.68;7.70;;;;;;;11.56;100.00;97683.06;2603882;28;20064;-86
2023/05/15 03:42:22;;;;;;;10.77;7.63;;;;;;;11.59;100.00;97693.41;2605317;28;20491;-87
2023/05/15 03:43:38;;;;;;;12.30;7.78;;;;;;;11.73;100.00;97692.81;2604224;28;20050;-87
2023/05/15 03:44:54;;;;;;;12.38;7.70;;;;;;;11.73;100.00;97679.69;2605218;28;20504;-87
2023/05/15 03:46:10;;;;;;;11.45;7.13;;;;;;;11.90;100.00;97677.22;2605637;28;20053;-86
2023/05/15 03:47:26;;;;;;;13.20;8.13;;;;;;;11.82;100.00;97682.81;2603226;28;20644;-87
2023/05/15 03:48:41;;;;;;;12.38;7.93;;;;;;;11.78;100.00;97678.63;2602867;28;20061;-87
2023/05/15 03:49:57;;;;;;;11.68;7.78;;;;;;;11.81;100.00;97681.97;2605269;28;20049;-86
2023/05/15 03:51:12;;;;;;;14.60;8.13;;;;;;;11.69;100.00;97674.66;2603348;28;20057;-87
2023/05/15 03:52:28;;;;;;;12.02;7.82;;;;;;;11.40;100.00;97676.81;2604201;28;20045;-87
2023/05/15 03:53:43;;;;;;;12.50;7.25;;;;;;;11.25;100.00;97681.78;2604450;28;20547;-87
2023/05/15 03:55:00;;;;;;;13.02;7.15;;;;;;;11.37;100.00;97676.91;2603842;28;20049;-87
2023/05/15 03:56:15;;;;;;;12.23;7.70;;;;;;;11.43;100.00;97672.25;2604133;28;20056;-87
2023/05/15 03:57:32;;;;;;;15.20;8.27;;;;;;;11.50;100.00;97672.84;2603269;28;20514;-88
2023/05/15 03:58:47;;;;;;;12.70;7.75;;;;;;;11.22;100.00;97667.97;2593640;28;20065;-87
2023/05/15 04:00:08;;;;;;;12.05;7.90;;;;;;;11.38;100.00;97676.00;2597798;28;20104;-87
2023/05/15 04:01:24;;;;;;;15.98;7.68;;;;;;;11.26;100.00;97675.63;2603405;28;20049;-87
2023/05/15 04:02:40;;;;;;;13.63;8.50;;;;;;;11.49;100.00;97678.16;2604110;28;20049;-86
2023/05/15 04:03:55;;;;;;;13.63;8.38;;;;;;;11.58;100.00;97675.13;2605646;28;20049;-88
2023/05/15 04:05:11;;;;;;;13.63;8.82;;;;;;;11.39;100.00;97678.56;2603402;28;20041;-87
2023/05/15 04:06:26;;;;;;;12.75;7.63;;;;;;;11.49;100.00;97680.78;2603997;28;20052;-87
2023/05/15 04:07:42;;;;;;;12.70;7.95;;;;;;;11.48;100.00;97676.47;2604671;28;20519;-87
2023/05/15 04:08:58;;;;;;;15.23;7.18;;;;;;;11.47;100.00;97677.38;2604089;28;20308;-86
2023/05/15 04:10:14;;;;;;;13.05;7.85;;;;;;;11.64;100.00;97680.09;2603378;28;20045;-89
2023/05/15 04:11:30;;;;;;;11.75;6.75;;;;;;;11.57;100.00;97674.28;2602875;28;20056;-87
2023/05/15 04:12:46;;;;;;;10.48;6.60;;;;;;;11.51;100.00;97671.09;2602596;28;20134;-86
2023/05/15 04:14:04;;;;;;;11.75;7.03;;;;;;;11.44;100.00;97671.34;2599952;28;20509;-87
2023/05/15 04:15:21;;;;;;;11.73;7.38;;;;;;;11.39;100.00;97675.94;2604552;28;20049;-87
2023/05/15 04:16:36;;;;;;;11.88;7.10;;;;;;;11.18;100.00;97667.25;2604937;28;20042;-87
2023/05/15 04:17:53;;;;;;;14.55;7.38;;;;;;;11.20;100.00;97670.63;2603388;28;20438;-87
2023/05/15 04:19:08;;;;;;;13.25;8.25;;;;;;;11.09;100.00;97670.25;2604274;28;20057;-87
2023/05/15 04:20:24;;;;;;;10.30;6.97;;;;;;;11.12;100.00;97667.50;2603673;28;20053;-86
2023/05/15 04:21:40;;;;;;;10.65;5.60;;;;;;;11.11;100.00;97671.06;2605864;28;20051;-85
2023/05/15 04:22:56;;;;;;;11.50;5.78;;;;;;;11.05;100.00;97666.06;2603845;28;20049;-86
2023/05/15 04:24:11;;;;;;;8.35;4.43;;;;;;;10.79;100.00;97668.00;2602882;28;20053;-86
2023/05/15 04:25:27;;;;;;;12.30;7.43;;;;;;;11.11;100.00;97661.41;2604742;28;20057;-87
2023/05/15 04:26:42;;;;;;;12.00;7.22;;;;;;;11.21;100.00;97658.41;2603073;28;20040;-86
2023/05/15 04:27:58;;;;;;;14.10;7.72;;;;;;;11.10;100.00;97664.09;2603378;28;20072;-87
2023/05/15 04:29:13;;;;;;;12.35;7.22;;;;;;;11.30;100.00;97666.72;2604411;28;20053;-86
2023/05/15 04:30:29;;;;;;;15.35;7.78;;;;;;;11.43;100.00;97664.38;2602939;28;20045;-87
2023/05/15 04:31:45;;;;;;;13.13;7.78;;;;;;;11.47;100.00;97669.53;2592351;28;20038;-87
2023/05/15 04:33:00;;;;;;;13.43;6.95;;;;;;;11.06;100.00;97666.00;2597123;28;20046;-86
2023/05/15 04:34:16;;;;;;;13.88;7.35;;;;;;;11.27;100.00;97664.22;2603613;28;20045;-87
2023/05/15 04:35:31;;;;;;;14.82;8.02;;;;;;;11.41;100.00;97668.03;2602316;28;20068;-87
2023/05/15 04:36:48;;;;;;;14.32;7.95;;;;;;;11.60;100.00;97668.06;2604043;28;20049;-87
2023/05/15 04:38:03;;;;;;;11.73;7.28;;;;;;;11.15;100.00;97664.75;2605288;28;20052;-87
2023/05/15 04:39:19;;;;;;;10.77;6.40;;;;;;;11.20;100.00;97660.16;2602734;28;20045;-86
2023/05/15 04:40:34;;;;;;;12.68;7.50;;;;;;;11.37;100.00;97666.44;2592768;28;20048;-87
2023/05/15 04:41:50;;;;;;;10.70;6.63;;;;;;;11.06;100.00;97668.63;2598150;28;20044;-86
2023/05/15 04:43:05;;;;;;;11.73;6.90;;;;;;;11.22;100.00;97655.69;2603536;28;20053;-86
2023/05/15 04:44:21;;;;;;;13.77;8.45;;;;;;;11.58;100.00;97667.25;2604366;28;20057;-87
2023/05/15 04:45:37;;;;;;;12.45;7.75;;;;;;;11.65;100.00;97662.59;2603760;28;20049;-87
2023/05/15 04:46:52;;;;;;;7.65;4.15;;;;;;;11.28;100.00;97668.56;2605260;28;20148;-87
2023/05/15 04:48:08;;;;;;;11.88;6.80;;;;;;;11.33;100.00;97655.25;2604194;28;20053;-87
2023/05/15 04:49:23;;;;;;;13.70;7.28;;;;;;;11.37;100.00;97664.69;2603224;28;20486;-88
2023/05/15 04:50:39;;;;;;;11.50;6.75;;;;;;;11.44;100.00;97666.09;2604530;28;20049;-87
2023/05/15 04:51:55;;;;;;;12.07;7.32;;;;;;;11.42;100.00;97667.09;2603870;28;20151;-88
2023/05/15 04:53:10;;;;;;;9.30;5.13;;;;;;;11.28;100.00;97662.44;2603044;28;20051;-86
2023/05/15 04:54:26;;;;;;;14.05;7.70;;;;;;;11.55;100.00;97664.78;2603510;28;20118;-87
2023/05/15 04:55:41;;;;;;;11.45;7.00;;;;;;;11.40;100.00;97656.66;2602467;28;20068;-86
2023/05/15 04:56:57;;;;;;;10.45;6.47;;;;;;;11.22;100.00;97658.31;2602288;28;20408;-87
2023/05/15 04:58:16;;;;;;;10.23;5.82;;;;;;;11.13;100.00;97656.94;2603660;28;20045;-86
2023/05/15 04:59:31;;;;;;;12.43;6.57;;;;;;;11.19;100.00;97660.25;2602417;28;20099;-86
2023/05/15 05:00:47;;;;;;;13.40;7.50;;;;;;;11.40;100.00;97655.84;2604146;28;20057;-87
2023/05/15 05:02:02;;;;;;;14.07;7.07;;;;;;;11.41;100.00;97658.38;2603619;28;20512;-86
2023/05/15 05:03:18;;;;;;;8.85;4.80;;;;;;;11.31;100.00;97654.44;2602308;28;20500;-86
2023/05/15 05:04:34;;;;;;;11.98;7.13;;;;;;;11.53;100.00;97667.47;2604195;28;20049;-86
2023/05/15 05:05:49;;;;;;;12.57;6.78;;;;;;;11.34;100.00;97659.56;2604781;28;20501;-86
2023/05/15 05:07:05;;;;;;;11.60;7.53;;;;;;;11.42;100.00;97660.06;2591194;28;20175;-86
2023/05/15 05:08:20;;;;;;;13.25;7.80;;;;;;;11.75;100.00;97661.25;2595211;28;20100;-87
2023/05/15 05:09:38;;;;;;;11.65;7.18;;;;;;;11.45;100.00;97664.34;2604826;28;20561;-95
2023/05/15 05:10:56;;;;;;;10.45;6.93;;;;;;;11.44;100.00;97666.09;2604767;28;20574;-88
2023/05/15 05:12:11;;;;;;;11.57;7.10;;;;;;;11.54;100.00;97663.06;2603831;28;20049;-89
2023/05/15 05:13:27;;;;;;;13.60;7.50;;;;;;;11.49;100.00;97663.28;2603557;28;20541;-88
2023/05/15 05:14:43;;;;;;;11.05;6.85;;;;;;;11.51;100.00;97657.97;2605176;28;20053;-89
2023/05/15 05:15:59;;;;;;;12.63;7.30;;;;;;;11.38;100.00;97663.75;2603383;28;20049;-89
2023/05/15 05:17:14;;;;;;;16.45;6.95;;;;;;;11.14;100.00;97653.41;2603082;28;20056;-88
2023/05/15 05:18:30;;;;;;;10.38;6.18;;;;;;;11.53;100.00;97659.63;2601791;28;20049;-89
2023/05/15 05:19:45;;;;;;;9.98;5.90;;;;;;;11.24;100.00;97656.47;2592129;28;20117;-88
2023/05/15 05:21:02;;;;;;;15.75;5.60;;;;;;;11.04;100.00;97648.66;2597377;28;20045;-89
2023/05/15 05:22:18;;;;;;;9.98;6.32;;;;;;;11.26;100.00;97648.56;2602320;28;20045;-88
2023/05/15 05:23:33;;;;;;;8.93;5.28;;;;;;;11.07;100.00;97653.75;2603027;28;20463;-89
2023/05/15 05:24:49;;;;;;;12.80;7.50;;;;;;;11.36;100.00;97643.75;2604832;28;20535;-89
2023/05/15 05:26:05;;;;;;;9.57;6.90;;;;;;;11.31;100.00;97646.59;2602391;28;20081;-89
2023/05/15 05:27:20;;;;;;;12.70;6.65;;;;;;;11.49;100.00;97652.78;2603122;28;20049;-89
2023/05/15 05:28:36;;;;;;;12.27;7.40;;;;;;;11.53;100.00;97650.88;2604942;28;20064;-89
2023/05/15 05:29:53;;;;;;;11.15;7.10;;;;;;;11.42;100.00;97644.34;2602014;28;20160;-88
2023/05/15 05:31:08;;;;;;;10.60;6.72;;;;;;;11.39;100.00;97647.09;2603879;28;20081;-88
2023/05/15 05:32:24;;;;;;;12.10;7.22;;;;;;;11.26;100.00;97646.81;2602665;28;20053;-89
2023/05/15 05:33:39;;;;;;;12.48;7.18;;;;;;;11.49;100.00;97652.78;2604356;28;20052;-90
2023/05/15 05:34:55;;;;;;;10.57;6.30;;;;;;;11.58;100.00;97643.66;2602080;28;20405;-89
2023/05/15 05:36:10;;;;;;;10.88;7.18;;;;;;;11.47;100.00;97638.06;2604358;28;20080;-89
2023/05/15 05:37:26;;;;;;;13.80;7.55;;;;;;;11.43;100.00;97645.22;2603578;28;20049;-89
2023/05/15 05:38:42;;;;;;;12.20;6.55;;;;;;;11.53;100.00;97645.66;2604473;28;20567;-89
2023/05/15 05:39:57;;;;;;;11.57;6.88;;;;;;;11.79;100.00;97646.25;2605213;28;20053;-90
2023/05/15 05:41:13;;;;;;;12.05;7.15;;;;;;;11.68;100.00;97644.94;2602983;28;20538;-89
2023/05/15 05:42:28;;;;;;;10.98;6.28;;;;;;;11.82;100.00;97646.97;2602673;28;20108;-89
2023/05/15 05:43:44;;;;;;;12.82;7.43;;;;;;;11.49;100.00;97659.81;2604339;28;20048;-90
2023/05/15 05:45:00;;;;;;;13.77;7.55;;;;;;;11.60;100.00;97644.47;2601287;28;20084;-89
2023/05/15 05:46:15;;;;;;;10.45;6.40;;;;;;;11.57;100.00;97644.56;2603333;28;20045;-89
2023/05/15 05:47:31;;;;;;;10.20;5.35;;;;;;;11.49;100.00;97639.69;2602675;28;20056;-89
2023/05/15 05:48:46;;;;;;;12.30;6.97;;;;;;;11.42;100.00;97646.13;2603079;28;20087;-90
2023/05/15 05:50:02;;;;;;;10.50;6.28;;;;;;;11.55;100.00;97643.81;2602974;28;20401;-90
2023/05/15 05:51:18;;;;;;;10.93;5.78;;;;;;;11.29;100.00;97651.03;2604020;28;20492;-90
2023/05/15 05:52:33;;;;;;;9.93;6.10;;;;;;;11.45;100.00;97635.50;2604778;28;20049;-89
2023/05/15 05:53:49;;;;;;;11.15;6.80;;;;;;;11.36;100.00;97643.75;2591483;28;20045;-89
2023/05/15 05:55:05;;;;;;;11.40;6.60;;;;;;;11.42;100.00;97644.34;2596657;28;20049;-90
2023/05/15 05:56:21;;;;;;;11.23;6.15;;;;;;;11.34;100.00;97636.00;2590945;28;20050;-90